Time;durP1;ratioP1;P1;durP2;ratioP2;P2;SDS_P1;SDS_P2;PMS_P1;PMS_P2;Temp;Humidity;BMP_temperature;BMP_pressure;BME280_temperature;BME280_humidity;BME280_pressure;Samples;Min_cycle;Max_cycle;Signal;HPM_P1;HPM_P2
2024/02/29 00:02:23;;;;;;;59.20;22.40;;;4.10;99.90;;;;;;5080635;28;20643;-68
2024/02/29 00:04:49;;;;;;;63.28;23.15;;;4.10;99.90;;;;;;5059889;28;20040;-67
2024/02/29 00:07:15;;;;;;;61.20;22.98;;;4.20;99.90;;;;;;5066202;28;20594;-71
2024/02/29 00:09:40;;;;;;;56.50;22.50;;;4.10;99.90;;;;;;5086462;28;20036;-69
2024/02/29 00:12:06;;;;;;;59.22;22.88;;;4.20;99.90;;;;;;5084554;28;20101;-68
2024/02/29 00:14:32;;;;;;;54.85;21.00;;;4.20;99.90;;;;;;5082962;28;20036;-67
2024/02/29 00:17:00;;;;;;;59.00;22.35;;;4.20;99.90;;;;;;5081511;28;20071;-67
2024/02/29 00:19:26;;;;;;;50.70;19.73;;;4.30;99.90;;;;;;5077174;28;20112;-68
2024/02/29 00:21:52;;;;;;;60.13;22.52;;;4.30;99.90;;;;;;5076304;28;20079;-67
2024/02/29 00:24:18;;;;;;;55.42;21.70;;;4.30;99.90;;;;;;5078295;28;20028;-67
2024/02/29 00:26:43;;;;;;;60.30;23.27;;;4.40;99.90;;;;;;5086162;28;20032;-68
2024/02/29 00:29:09;;;;;;;53.22;21.42;;;4.40;99.90;;;;;;5077837;28;20093;-68
2024/02/29 00:31:35;;;;;;;51.50;20.48;;;4.40;99.90;;;;;;5082506;28;20043;-69
2024/02/29 00:34:01;;;;;;;55.80;22.80;;;4.40;99.90;;;;;;5083465;28;20039;-69
2024/02/29 00:36:26;;;;;;;56.70;21.40;;;4.40;99.90;;;;;;5076003;28;20413;-68
2024/02/29 00:38:52;;;;;;;52.58;20.48;;;4.40;99.90;;;;;;5079066;28;20082;-68
2024/02/29 00:41:18;;;;;;;53.35;19.95;;;4.40;99.90;;;;;;5063211;28;20528;-68
2024/02/29 00:43:44;;;;;;;49.92;19.75;;;4.40;99.90;;;;;;5077325;28;20047;-70
2024/02/29 00:46:10;;;;;;;56.10;20.42;;;4.50;99.90;;;;;;5083790;28;20036;-68
2024/02/29 00:48:36;;;;;;;50.90;19.55;;;4.50;99.90;;;;;;5081317;28;20032;-69
2024/02/29 00:51:02;;;;;;;47.17;18.20;;;4.50;99.90;;;;;;5076503;28;20037;-68
2024/02/29 00:53:28;;;;;;;46.78;18.65;;;4.60;99.90;;;;;;5083732;28;20028;-68
2024/02/29 00:55:53;;;;;;;44.80;16.83;;;4.70;99.90;;;;;;5075078;28;20655;-71
2024/02/29 00:58:19;;;;;;;42.83;18.27;;;4.70;99.90;;;;;;5073792;28;20036;-68
2024/02/29 01:00:45;;;;;;;43.55;18.02;;;4.70;99.90;;;;;;5057736;28;20040;-70
2024/02/29 01:03:10;;;;;;;47.10;18.55;;;4.80;99.90;;;;;;5083991;28;20036;-68
2024/02/29 01:05:36;;;;;;;42.33;16.50;;;4.90;99.90;;;;;;5078025;28;20511;-68
2024/02/29 01:08:02;;;;;;;37.63;16.17;;;4.90;99.90;;;;;;5082905;28;20115;-68
2024/02/29 01:10:27;;;;;;;40.03;16.83;;;5.00;99.90;;;;;;5082718;28;20044;-70
2024/02/29 01:12:53;;;;;;;44.67;17.55;;;5.00;99.90;;;;;;5075325;28;20036;-68
2024/02/29 01:15:19;;;;;;;40.38;17.02;;;5.00;99.90;;;;;;5075090;28;20025;-69
2024/02/29 01:17:46;;;;;;;43.28;16.33;;;5.10;99.90;;;;;;5075336;28;20145;-68
2024/02/29 01:20:12;;;;;;;39.58;15.60;;;5.10;99.90;;;;;;5079915;28;20475;-67
2024/02/29 01:22:38;;;;;;;41.55;17.13;;;5.10;99.90;;;;;;5079535;28;20033;-68
2024/02/29 01:25:04;;;;;;;36.78;16.23;;;5.10;99.90;;;;;;5079672;28;20029;-69
2024/02/29 01:27:29;;;;;;;42.13;16.95;;;5.10;99.90;;;;;;5078116;28;20038;-68
2024/02/29 01:29:55;;;;;;;42.85;16.25;;;5.20;99.90;;;;;;5076671;28;20024;-70
2024/02/29 01:32:21;;;;;;;39.03;16.08;;;5.20;99.90;;;;;;5062471;28;20044;-69
2024/02/29 01:34:47;;;;;;;38.05;15.15;;;5.20;99.90;;;;;;5081904;28;20499;-68
2024/02/29 01:37:14;;;;;;;40.13;16.95;;;5.20;99.90;;;;;;5076601;28;20033;-68
2024/02/29 01:39:41;;;;;;;39.50;15.35;;;5.20;99.90;;;;;;5075123;28;20649;-68
2024/02/29 01:42:07;;;;;;;42.03;15.80;;;5.30;99.90;;;;;;5080062;28;20070;-67
2024/02/29 01:44:34;;;;;;;35.20;15.43;;;5.20;99.90;;;;;;5060223;28;20024;-68
2024/02/29 01:47:01;;;;;;;43.03;16.35;;;5.20;99.90;;;;;;5071365;28;20607;-67
2024/02/29 01:49:27;;;;;;;34.28;15.38;;;5.30;99.90;;;;;;5068550;28;20063;-67
2024/02/29 01:51:54;;;;;;;31.95;14.13;;;5.20;99.90;;;;;;5075608;28;20493;-68
2024/02/29 01:54:19;;;;;;;34.40;15.27;;;5.30;99.90;;;;;;5079466;28;20533;-68
2024/02/29 01:56:45;;;;;;;33.35;14.57;;;5.30;99.90;;;;;;5075270;28;20044;-69
2024/02/29 01:59:13;;;;;;;34.40;15.48;;;5.30;99.90;;;;;;5074889;28;20094;-69
2024/02/29 02:01:39;;;;;;;35.90;15.10;;;5.30;99.90;;;;;;5063638;28;20028;-68
2024/02/29 02:04:05;;;;;;;42.88;15.55;;;5.30;99.90;;;;;;5077111;28;20031;-68
2024/02/29 02:06:30;;;;;;;33.65;13.88;;;5.30;99.90;;;;;;5069206;28;20040;-67
2024/02/29 02:08:56;;;;;;;30.98;14.05;;;5.30;99.90;;;;;;5061780;28;20226;-70
2024/02/29 02:11:22;;;;;;;33.28;14.55;;;5.30;99.90;;;;;;5076957;28;20090;-68
2024/02/29 02:13:47;;;;;;;32.40;14.05;;;5.30;99.90;;;;;;5078048;28;20036;-69
2024/02/29 02:16:14;;;;;;;35.83;14.02;;;5.30;99.90;;;;;;5068591;28;20533;-68
2024/02/29 02:18:39;;;;;;;34.90;14.68;;;5.30;99.90;;;;;;5080582;28;20382;-67
2024/02/29 02:21:05;;;;;;;36.60;14.27;;;5.20;99.90;;;;;;5083143;28;20451;-67
2024/02/29 02:23:31;;;;;;;32.67;14.60;;;5.20;99.90;;;;;;5082744;28;20032;-68
2024/02/29 02:26:00;;;;;;;36.80;15.52;;;5.20;99.90;;;;;;5076948;28;20036;-68
2024/02/29 02:28:26;;;;;;;30.80;13.77;;;5.30;99.90;;;;;;5085249;28;20028;-69
2024/02/29 02:30:52;;;;;;;30.70;13.55;;;5.20;99.90;;;;;;5077383;28;20031;-68
2024/02/29 02:33:18;;;;;;;33.53;14.13;;;5.20;99.90;;;;;;5075751;28;20448;-69
2024/02/29 02:35:44;;;;;;;32.17;13.77;;;5.20;99.90;;;;;;5085767;28;20144;-67
2024/02/29 02:38:10;;;;;;;33.63;13.90;;;5.20;99.90;;;;;;5081958;28;20669;-68
2024/02/29 02:40:36;;;;;;;34.55;14.27;;;5.20;99.90;;;;;;5077239;28;20032;-66
2024/02/29 02:43:02;;;;;;;35.58;13.68;;;5.20;99.90;;;;;;5086852;28;20028;-69
2024/02/29 02:45:28;;;;;;;34.38;13.43;;;5.20;99.90;;;;;;5080937;28;20553;-66
2024/02/29 02:47:54;;;;;;;34.30;13.75;;;5.20;99.90;;;;;;5081362;28;20503;-66
2024/02/29 02:50:19;;;;;;;32.05;13.77;;;5.20;99.90;;;;;;5079250;28;20132;-68
2024/02/29 02:52:45;;;;;;;32.70;12.98;;;5.20;99.90;;;;;;5083501;28;20714;-67
2024/02/29 02:55:11;;;;;;;31.55;13.32;;;5.10;99.90;;;;;;5081578;28;20021;-68
2024/02/29 02:57:36;;;;;;;31.35;13.20;;;5.10;99.90;;;;;;5086381;28;20551;-68
2024/02/29 03:00:04;;;;;;;33.50;13.05;;;5.10;99.90;;;;;;5077944;28;20036;-68
2024/02/29 03:02:29;;;;;;;35.40;14.25;;;5.10;99.90;;;;;;5064466;28;20029;-68
2024/02/29 03:04:55;;;;;;;31.02;13.50;;;5.10;99.90;;;;;;5083575;28;20032;-69
2024/02/29 03:07:21;;;;;;;33.60;13.45;;;5.10;99.90;;;;;;5074899;28;20063;-67
2024/02/29 03:09:47;;;;;;;29.92;12.82;;;5.10;99.90;;;;;;5073723;28;20485;-66
2024/02/29 03:12:13;;;;;;;34.10;14.15;;;5.00;99.90;;;;;;5080498;28;20032;-67
2024/02/29 03:14:39;;;;;;;34.03;12.65;;;5.10;99.90;;;;;;5082078;28;20068;-69
2024/02/29 03:17:04;;;;;;;28.08;12.77;;;5.00;99.90;;;;;;5078615;28;20087;-68
2024/02/29 03:19:30;;;;;;;29.05;12.52;;;5.00;99.90;;;;;;5079558;28;20077;-67
2024/02/29 03:21:56;;;;;;;28.20;11.85;;;5.00;99.90;;;;;;5076944;28;20058;-71
2024/02/29 03:24:21;;;;;;;27.73;12.32;;;5.00;99.90;;;;;;5078957;28;20102;-67
2024/02/29 03:26:47;;;;;;;30.52;12.45;;;5.10;99.90;;;;;;5081758;28;20451;-68
2024/02/29 03:29:13;;;;;;;29.98;13.95;;;5.00;99.90;;;;;;5079205;28;20024;-68
2024/02/29 03:31:42;;;;;;;27.88;12.80;;;5.00;99.90;;;;;;5075872;28;20024;-68
2024/02/29 03:34:08;;;;;;;30.10;12.05;;;5.00;99.90;;;;;;5075292;28;20032;-68
2024/02/29 03:36:33;;;;;;;30.98;13.05;;;5.00;99.90;;;;;;5080532;28;20032;-69
2024/02/29 03:38:59;;;;;;;36.25;12.73;;;5.00;99.90;;;;;;5084282;28;20507;-68
2024/02/29 03:41:25;;;;;;;31.35;12.98;;;5.00;99.90;;;;;;5079580;28;20032;-68
2024/02/29 03:43:50;;;;;;;32.25;11.38;;;5.00;99.90;;;;;;5080318;28;20024;-70
2024/02/29 03:46:16;;;;;;;28.52;12.98;;;5.00;99.90;;;;;;5082102;28;20131;-69
2024/02/29 03:48:41;;;;;;;27.90;12.18;;;5.00;99.90;;;;;;5081101;28;20575;-68
2024/02/29 03:51:08;;;;;;;27.77;12.35;;;5.00;99.90;;;;;;5083342;28;22397;-68
2024/02/29 03:53:34;;;;;;;29.80;13.15;;;5.00;99.90;;;;;;5078301;28;20238;-69
2024/02/29 03:56:00;;;;;;;28.35;12.95;;;5.00;99.90;;;;;;5074329;28;20452;-69
2024/02/29 03:58:26;;;;;;;28.25;11.82;;;5.00;99.90;;;;;;5082110;28;20023;-69
2024/02/29 04:00:51;;;;;;;33.80;13.30;;;5.00;99.90;;;;;;5079006;28;20445;-69
2024/02/29 04:03:17;;;;;;;28.45;12.48;;;5.00;99.90;;;;;;5082974;28;20033;-68
2024/02/29 04:05:43;;;;;;;28.00;11.85;;;4.90;99.90;;;;;;5079090;28;20056;-69
2024/02/29 04:08:11;;;;;;;28.02;11.38;;;4.90;99.90;;;;;;5081147;28;20668;-66
2024/02/29 04:10:38;;;;;;;28.15;12.05;;;4.90;99.90;;;;;;5064168;28;20024;-67
2024/02/29 04:13:04;;;;;;;29.00;12.07;;;4.90;99.90;;;;;;5075315;28;20024;-67
2024/02/29 04:15:29;;;;;;;28.52;12.30;;;4.90;99.90;;;;;;5064881;28;20386;-68
2024/02/29 04:17:55;;;;;;;23.40;10.63;;;4.90;99.90;;;;;;5062178;28;20747;-70
2024/02/29 04:20:21;;;;;;;27.48;11.63;;;4.90;99.90;;;;;;5067050;28;20036;-69
2024/02/29 04:22:46;;;;;;;26.20;12.35;;;4.90;99.90;;;;;;5060053;28;20119;-67
2024/02/29 04:25:12;;;;;;;25.98;11.57;;;4.90;99.90;;;;;;5080302;28;20060;-66
2024/02/29 04:27:38;;;;;;;27.35;12.10;;;4.90;99.90;;;;;;5084937;28;20024;-69
2024/02/29 04:30:05;;;;;;;28.80;12.40;;;4.90;99.90;;;;;;5082021;28;20031;-71
2024/02/29 04:32:31;;;;;;;27.27;12.25;;;4.90;99.90;;;;;;5076793;28;20058;-69
2024/02/29 04:34:57;;;;;;;30.05;12.23;;;4.90;99.90;;;;;;5060953;28;20052;-70
2024/02/29 04:37:22;;;;;;;29.40;12.45;;;4.80;99.90;;;;;;5078805;28;20577;-67
2024/02/29 04:39:48;;;;;;;32.40;12.60;;;4.90;99.90;;;;;;5077694;28;20112;-69
2024/02/29 04:42:13;;;;;;;29.83;13.02;;;4.80;99.90;;;;;;5075247;28;20037;-68
2024/02/29 04:44:39;;;;;;;29.98;13.05;;;4.80;99.90;;;;;;5074561;28;20056;-69
2024/02/29 04:47:06;;;;;;;27.13;12.60;;;4.80;99.90;;;;;;5077022;28;20035;-69
2024/02/29 04:49:32;;;;;;;25.73;11.93;;;4.80;99.90;;;;;;5086977;28;20213;-67
2024/02/29 04:51:58;;;;;;;31.80;13.40;;;4.80;99.90;;;;;;5079632;28;20107;-68
2024/02/29 04:54:23;;;;;;;29.35;12.40;;;4.80;99.90;;;;;;5081586;28;20036;-68
2024/02/29 04:56:49;;;;;;;32.58;12.45;;;4.80;99.90;;;;;;5066520;28;20040;-68
2024/02/29 04:59:14;;;;;;;27.55;11.65;;;4.80;99.90;;;;;;5078823;28;20039;-68
2024/02/29 05:01:40;;;;;;;27.17;11.77;;;4.80;99.90;;;;;;5078103;28;20036;-67
2024/02/29 05:04:05;;;;;;;33.05;12.80;;;4.80;99.90;;;;;;5077619;28;20062;-67
2024/02/29 05:06:31;;;;;;;29.02;11.95;;;4.70;99.90;;;;;;5080141;28;20059;-68
2024/02/29 05:08:57;;;;;;;29.92;12.38;;;4.70;99.90;;;;;;5077836;28;20654;-67
2024/02/29 05:11:23;;;;;;;31.38;12.50;;;4.80;99.90;;;;;;5077537;28;20131;-68
2024/02/29 05:13:48;;;;;;;25.95;11.93;;;4.80;99.90;;;;;;5076711;28;20043;-69
2024/02/29 05:16:17;;;;;;;30.30;12.73;;;4.80;99.90;;;;;;5083106;28;20029;-68
2024/02/29 05:18:42;;;;;;;33.55;12.80;;;4.80;99.90;;;;;;5079006;28;20104;-68
2024/02/29 05:21:08;;;;;;;26.25;12.13;;;4.70;99.90;;;;;;5077041;28;20131;-69
2024/02/29 05:23:33;;;;;;;33.78;12.63;;;4.70;99.90;;;;;;5059013;28;20044;-72
2024/02/29 05:25:59;;;;;;;30.02;11.77;;;4.70;99.90;;;;;;5075131;28;20032;-69
2024/02/29 05:28:26;;;;;;;30.13;12.38;;;4.70;99.90;;;;;;5067922;28;20036;-69
2024/02/29 05:30:51;;;;;;;30.35;13.13;;;4.80;99.90;;;;;;5082762;28;20028;-67
2024/02/29 05:33:17;;;;;;;31.58;13.73;;;4.80;99.90;;;;;;5075433;28;20670;-67
2024/02/29 05:35:46;;;;;;;25.20;12.10;;;4.80;99.90;;;;;;5062317;28;20043;-69
2024/02/29 05:38:12;;;;;;;30.67;12.48;;;4.70;99.90;;;;;;5081180;28;20032;-70
2024/02/29 05:40:37;;;;;;;28.52;12.25;;;4.80;99.90;;;;;;5077381;28;20031;-68
2024/02/29 05:43:04;;;;;;;37.20;12.02;;;4.80;99.90;;;;;;5080278;28;20028;-67
2024/02/29 05:45:29;;;;;;;27.35;12.88;;;4.80;99.90;;;;;;5063948;28;20090;-67
2024/02/29 05:47:55;;;;;;;31.98;13.43;;;4.80;99.90;;;;;;5062937;28;20020;-70
2024/02/29 05:50:20;;;;;;;25.48;12.23;;;4.70;99.90;;;;;;5062042;28;20036;-69
2024/02/29 05:52:46;;;;;;;29.80;12.45;;;4.80;99.90;;;;;;5082732;28;20032;-70
2024/02/29 05:55:12;;;;;;;27.75;12.70;;;4.80;99.90;;;;;;5070664;28;20028;-67
2024/02/29 05:57:37;;;;;;;31.88;11.50;;;4.70;99.90;;;;;;5075380;28;20586;-65
2024/02/29 06:00:04;;;;;;;27.38;11.75;;;4.80;99.90;;;;;;5083145;28;20036;-69
2024/02/29 06:02:30;;;;;;;33.17;11.85;;;4.80;99.90;;;;;;5082813;28;20044;-67
2024/02/29 06:04:58;;;;;;;25.70;12.25;;;4.80;99.90;;;;;;5084375;28;20108;-67
2024/02/29 06:07:24;;;;;;;31.35;12.45;;;4.80;99.90;;;;;;5079656;28;20024;-71
2024/02/29 06:09:50;;;;;;;24.95;11.57;;;4.80;99.90;;;;;;5086171;28;20698;-68
2024/02/29 06:12:16;;;;;;;29.75;12.48;;;4.80;99.90;;;;;;5077833;28;20043;-67
2024/02/29 06:14:42;;;;;;;29.50;12.10;;;4.80;99.90;;;;;;5072675;28;20036;-67
2024/02/29 06:17:08;;;;;;;25.58;11.40;;;4.80;99.90;;;;;;5081265;28;20055;-68
2024/02/29 06:19:39;;;;;;;29.60;12.43;;;4.80;99.90;;;;;;5077455;28;20493;-68
2024/02/29 06:22:08;;;;;;;28.77;12.50;;;4.80;99.90;;;;;;5077376;28;20028;-67
2024/02/29 06:24:34;;;;;;;27.25;12.57;;;4.80;99.90;;;;;;5081718;28;20032;-67
2024/02/29 06:27:00;;;;;;;30.95;11.77;;;4.80;99.90;;;;;;5078606;28;20044;-66
2024/02/29 06:29:25;;;;;;;29.52;11.43;;;4.80;99.90;;;;;;5077711;28;20366;-66
2024/02/29 06:31:51;;;;;;;29.23;11.07;;;4.80;99.90;;;;;;5078014;28;20038;-67
2024/02/29 06:34:18;;;;;;;24.48;11.00;;;4.80;99.90;;;;;;5077345;28;20603;-66
2024/02/29 06:36:44;;;;;;;30.27;13.23;;;4.80;99.90;;;;;;5077684;28;20020;-69
2024/02/29 06:39:10;;;;;;;26.63;11.05;;;4.80;99.90;;;;;;5065210;28;20024;-68
2024/02/29 06:41:36;;;;;;;26.50;11.75;;;4.90;99.90;;;;;;5065598;28;20127;-68
2024/02/29 06:44:05;;;;;;;24.05;11.52;;;4.90;99.90;;;;;;5081218;28;20028;-67
2024/02/29 06:46:30;;;;;;;24.58;11.32;;;4.90;99.90;;;;;;5064587;28;20059;-68
2024/02/29 06:48:56;;;;;;;28.27;12.15;;;4.90;99.90;;;;;;5078379;28;20060;-73
2024/02/29 06:51:23;;;;;;;27.45;11.90;;;4.90;99.90;;;;;;5077725;28;20028;-66
2024/02/29 06:53:49;;;;;;;25.45;11.65;;;4.90;99.90;;;;;;5084223;28;20416;-68
2024/02/29 06:56:16;;;;;;;26.83;12.00;;;4.90;99.90;;;;;;5067096;28;20032;-70
2024/02/29 06:58:44;;;;;;;26.90;11.17;;;5.00;99.90;;;;;;5075517;28;20035;-67
2024/02/29 07:01:13;;;;;;;22.88;10.48;;;5.00;99.90;;;;;;5079153;28;20272;-67
2024/02/29 07:03:39;;;;;;;22.88;10.68;;;5.00;99.90;;;;;;5084888;28;20048;-69
2024/02/29 07:06:04;;;;;;;21.98;10.85;;;5.00;99.90;;;;;;5069253;28;20036;-68
2024/02/29 07:08:36;;;;;;;25.77;10.57;;;5.00;99.90;;;;;;5077482;28;20079;-68
2024/02/29 07:11:03;;;;;;;24.63;11.27;;;5.10;99.90;;;;;;5076041;28;20028;-70
2024/02/29 07:13:29;;;;;;;27.35;11.15;;;5.10;99.90;;;;;;5076442;28;20495;-68
2024/02/29 07:15:55;;;;;;;23.73;11.30;;;5.10;99.90;;;;;;5075287;28;20123;-69
2024/02/29 07:18:21;;;;;;;28.27;12.05;;;5.20;99.90;;;;;;5079758;28;20028;-67
2024/02/29 07:20:47;;;;;;;24.85;9.85;;;5.30;99.90;;;;;;5064904;28;20029;-68
2024/02/29 07:23:13;;;;;;;23.95;11.45;;;5.30;99.90;;;;;;5078174;28;20032;-67
2024/02/29 07:25:39;;;;;;;27.08;11.38;;;5.40;99.90;;;;;;5078183;28;20093;-66
2024/02/29 07:28:06;;;;;;;33.78;12.45;;;5.40;99.90;;;;;;5075237;28;20028;-68
2024/02/29 07:30:32;;;;;;;28.02;11.25;;;5.50;99.90;;;;;;5071518;28;20039;-69
2024/02/29 07:32:58;;;;;;;22.05;10.98;;;5.50;99.90;;;;;;5078192;28;20032;-68
2024/02/29 07:35:27;;;;;;;24.88;11.00;;;5.60;99.90;;;;;;5078438;28;20028;-67
2024/02/29 07:37:53;;;;;;;22.42;10.63;;;5.70;99.90;;;;;;5081639;28;20032;-66
2024/02/29 07:40:19;;;;;;;27.58;12.10;;;5.70;99.90;;;;;;5078152;28;20484;-68
2024/02/29 07:42:45;;;;;;;26.67;11.23;;;5.70;99.90;;;;;;5083749;28;20028;-68
2024/02/29 07:45:10;;;;;;;24.77;12.18;;;5.80;99.90;;;;;;5076762;28;20044;-68
2024/02/29 07:47:37;;;;;;;24.88;11.95;;;5.80;99.90;;;;;;5078121;28;20075;-69
2024/02/29 07:50:05;;;;;;;24.45;11.48;;;5.90;99.90;;;;;;5081044;28;20047;-67
2024/02/29 07:52:39;;;;;;;26.85;11.75;;;5.90;99.90;;;;;;5062291;28;20036;-69
2024/02/29 07:55:06;;;;;;;27.13;11.48;;;6.00;99.90;;;;;;5080317;28;20098;-69
2024/02/29 07:57:32;;;;;;;23.33;11.98;;;6.00;99.90;;;;;;5076283;28;20036;-67
2024/02/29 07:59:57;;;;;;;28.02;12.60;;;6.10;99.90;;;;;;5076085;28;20043;-67
2024/02/29 08:02:23;;;;;;;28.08;13.13;;;6.10;99.90;;;;;;5078459;28;20069;-68
2024/02/29 08:04:48;;;;;;;25.75;11.45;;;6.20;99.90;;;;;;5076519;28;20048;-68
2024/02/29 08:07:14;;;;;;;28.05;12.95;;;6.30;99.90;;;;;;5078585;28;20843;-67
2024/02/29 08:09:40;;;;;;;28.58;12.70;;;6.40;99.90;;;;;;5076437;28;20032;-68
2024/02/29 08:12:06;;;;;;;29.92;12.30;;;6.50;99.90;;;;;;5077358;28;20035;-66
2024/02/29 08:14:32;;;;;;;27.75;12.05;;;6.50;99.90;;;;;;5078109;28;20036;-66
2024/02/29 08:16:57;;;;;;;27.90;12.90;;;6.60;99.90;;;;;;5077453;28;20051;-67
2024/02/29 08:19:24;;;;;;;29.77;11.98;;;6.70;99.90;;;;;;5063887;28;20020;-67
2024/02/29 08:21:49;;;;;;;27.80;12.77;;;6.80;99.90;;;;;;5083209;28;20024;-67
2024/02/29 08:24:15;;;;;;;31.60;12.93;;;6.90;99.90;;;;;;5079608;28;20052;-69
2024/02/29 08:26:44;;;;;;;24.90;12.05;;;6.90;99.90;;;;;;5060881;28;20441;-67
2024/02/29 08:29:18;;;;;;;27.35;12.38;;;7.10;99.90;;;;;;5063862;28;20020;-68
2024/02/29 08:31:44;;;;;;;28.27;11.80;;;7.20;99.90;;;;;;5076713;28;20032;-69
2024/02/29 08:34:10;;;;;;;26.35;11.75;;;7.30;99.90;;;;;;5079170;28;20028;-68
2024/02/29 08:36:36;;;;;;;23.17;11.23;;;7.30;99.90;;;;;;5080796;28;20135;-67
2024/02/29 08:39:02;;;;;;;22.60;11.50;;;7.40;99.90;;;;;;5077056;28;20035;-67
2024/02/29 08:41:28;;;;;;;24.27;11.40;;;7.50;99.90;;;;;;5074489;28;20443;-68
2024/02/29 08:43:53;;;;;;;21.90;10.50;;;7.60;99.90;;;;;;5076675;28;20469;-68
2024/02/29 08:46:19;;;;;;;28.63;11.90;;;7.70;99.90;;;;;;5080913;28;20079;-67
2024/02/29 08:48:45;;;;;;;27.70;12.05;;;7.70;99.90;;;;;;5077842;28;20397;-67
2024/02/29 08:51:11;;;;;;;22.58;10.70;;;7.80;99.90;;;;;;5080454;28;20127;-67
2024/02/29 08:53:37;;;;;;;24.40;11.38;;;7.90;99.90;;;;;;5079824;28;20123;-66
2024/02/29 08:56:03;;;;;;;31.38;12.50;;;7.90;99.90;;;;;;5080835;28;20036;-66
2024/02/29 08:58:29;;;;;;;27.38;11.73;;;8.00;99.90;;;;;;5061199;28;20680;-67
2024/02/29 09:00:55;;;;;;;23.15;11.50;;;8.00;99.90;;;;;;5064945;28;20089;-67
2024/02/29 09:03:20;;;;;;;24.23;11.85;;;8.00;99.90;;;;;;5073903;28;20036;-66
2024/02/29 09:05:46;;;;;;;25.52;11.32;;;8.10;99.90;;;;;;5076848;28;20039;-68
2024/02/29 09:08:12;;;;;;;26.25;12.10;;;8.20;99.90;;;;;;5075778;28;20059;-67
2024/02/29 09:10:37;;;;;;;23.92;12.55;;;8.20;99.90;;;;;;5075896;28;20051;-67
2024/02/29 09:13:06;;;;;;;25.23;11.32;;;8.30;99.60;;;;;;5072512;28;20045;-66
2024/02/29 09:15:32;;;;;;;33.15;12.48;;;8.30;99.50;;;;;;5060931;28;20036;-67
2024/02/29 09:17:59;;;;;;;28.92;12.25;;;8.40;99.60;;;;;;5074889;28;20048;-67
2024/02/29 09:20:24;;;;;;;27.33;12.38;;;8.50;99.50;;;;;;5080287;28;20131;-66
2024/02/29 09:22:50;;;;;;;26.55;12.00;;;8.50;99.30;;;;;;5081367;28;20815;-66
2024/02/29 09:25:19;;;;;;;26.95;12.10;;;8.50;99.60;;;;;;5073679;28;20024;-66
2024/02/29 09:27:44;;;;;;;23.73;11.80;;;8.70;99.60;;;;;;5086955;28;20020;-68
2024/02/29 09:30:11;;;;;;;23.60;11.85;;;8.80;99.50;;;;;;5084349;28;20087;-66
2024/02/29 09:32:37;;;;;;;26.83;12.38;;;8.90;99.70;;;;;;5079992;28;20542;-65
2024/02/29 09:35:03;;;;;;;27.77;11.68;;;9.00;99.70;;;;;;5082942;28;20031;-66
2024/02/29 09:37:29;;;;;;;26.95;12.45;;;9.10;99.50;;;;;;5081800;28;20027;-66
2024/02/29 09:39:55;;;;;;;25.45;11.27;;;9.20;99.40;;;;;;5085329;28;20081;-65
2024/02/29 09:42:21;;;;;;;28.65;12.13;;;9.20;99.20;;;;;;5081362;28;20032;-66
2024/02/29 09:44:47;;;;;;;25.00;11.77;;;9.30;98.90;;;;;;5083491;28;20035;-67
2024/02/29 09:47:14;;;;;;;27.05;12.45;;;9.40;99.00;;;;;;5086621;28;20547;-66
2024/02/29 09:49:40;;;;;;;23.20;11.37;;;9.50;99.10;;;;;;5083307;28;20056;-67
2024/02/29 09:52:06;;;;;;;26.05;12.30;;;9.60;98.90;;;;;;5088178;28;20276;-65
2024/02/29 09:54:34;;;;;;;25.58;12.52;;;9.60;98.80;;;;;;5078770;28;20042;-66
2024/02/29 09:57:00;;;;;;;29.17;12.77;;;9.70;98.70;;;;;;5082265;28;20043;-66
2024/02/29 09:59:27;;;;;;;25.67;12.85;;;9.80;98.70;;;;;;5083182;28;20627;-66
2024/02/29 10:01:52;;;;;;;33.15;11.43;;;9.90;99.00;;;;;;5084386;28;20036;-66
2024/02/29 10:04:18;;;;;;;26.17;12.30;;;10.00;98.50;;;;;;5081543;28;20031;-66
2024/02/29 10:06:44;;;;;;;25.92;12.93;;;10.20;98.30;;;;;;5085260;28;20085;-67
2024/02/29 10:09:10;;;;;;;23.45;12.02;;;10.20;98.00;;;;;;5084305;28;20039;-66
2024/02/29 10:11:43;;;;;;;24.02;12.18;;;10.40;98.20;;;;;;5085209;28;20260;-66
2024/02/29 10:14:22;;;;;;;28.80;12.77;;;10.50;97.70;;;;;;5067370;28;20054;-66
2024/02/29 10:16:51;;;;;;;28.40;12.30;;;10.60;97.80;;;;;;5082997;28;20040;-67
2024/02/29 10:19:18;;;;;;;24.17;12.07;;;10.70;97.50;;;;;;5068576;28;20036;-67
2024/02/29 10:21:44;;;;;;;26.75;11.50;;;10.70;97.20;;;;;;5085916;28;20059;-67
2024/02/29 10:24:09;;;;;;;24.15;12.35;;;10.90;97.40;;;;;;5085506;28;20567;-67
2024/02/29 10:26:35;;;;;;;28.80;12.50;;;11.00;97.20;;;;;;5079785;28;22888;-67
2024/02/29 10:29:09;;;;;;;25.77;12.15;;;11.30;97.20;;;;;;5079285;28;20108;-67
2024/02/29 10:31:35;;;;;;;25.55;11.63;;;11.40;97.10;;;;;;5076678;28;20028;-68
2024/02/29 10:34:01;;;;;;;25.30;12.18;;;11.70;97.30;;;;;;5082998;28;20035;-67
2024/02/29 10:36:26;;;;;;;23.77;11.80;;;11.80;96.80;;;;;;5084215;28;20043;-69
2024/02/29 10:38:52;;;;;;;26.65;12.05;;;11.90;96.30;;;;;;5083247;28;20076;-69
2024/02/29 10:41:20;;;;;;;22.73;12.63;;;12.20;96.20;;;;;;5076763;28;20095;-67
2024/02/29 10:43:50;;;;;;;23.52;11.70;;;12.40;96.10;;;;;;5079347;28;20047;-68
2024/02/29 10:46:20;;;;;;;21.95;11.23;;;12.50;96.00;;;;;;5077701;28;20114;-68
2024/02/29 10:48:57;;;;;;;19.02;10.45;;;12.60;95.60;;;;;;5080049;28;20160;-68
2024/02/29 10:51:42;;;;;;;23.33;11.40;;;12.80;95.40;;;;;;5081938;28;20135;-69
2024/02/29 10:54:31;;;;;;;25.90;11.00;;;13.00;95.00;;;;;;5077690;28;20575;-68
2024/02/29 10:56:58;;;;;;;23.42;12.18;;;13.20;95.40;;;;;;5078985;28;20117;-69
2024/02/29 10:59:28;;;;;;;21.60;12.00;;;13.60;95.10;;;;;;5077721;28;20036;-68
2024/02/29 11:01:58;;;;;;;28.77;11.55;;;13.70;94.20;;;;;;5081410;28;20043;-68
2024/02/29 11:04:25;;;;;;;21.48;11.48;;;13.80;93.80;;;;;;5081257;28;20042;-68
2024/02/29 11:06:52;;;;;;;20.52;9.90;;;14.00;94.40;;;;;;5077459;28;20515;-68
2024/02/29 11:09:24;;;;;;;20.55;11.02;;;14.20;93.90;;;;;;5068505;28;20468;-69
2024/02/29 11:12:08;;;;;;;22.48;10.80;;;14.30;93.70;;;;;;5060382;28;20067;-67
2024/02/29 11:14:37;;;;;;;18.85;10.25;;;14.40;94.30;;;;;;5062501;28;20033;-67
2024/02/29 11:17:06;;;;;;;23.20;11.40;;;14.70;93.70;;;;;;5078028;28;20033;-69
2024/02/29 11:19:32;;;;;;;23.98;11.98;;;14.80;92.80;;;;;;5082887;28;20059;-68
2024/02/29 11:22:10;;;;;;;20.17;11.05;;;15.00;93.50;;;;;;5081458;28;20052;-69
2024/02/29 11:24:36;;;;;;;16.30;9.52;;;15.30;93.50;;;;;;5064232;28;20043;-68
2024/02/29 11:27:09;;;;;;;17.88;9.60;;;15.60;92.80;;;;;;5078689;28;20028;-65
2024/02/29 11:29:35;;;;;;;24.52;9.50;;;15.50;92.80;;;;;;5074194;28;20123;-67
2024/02/29 11:32:04;;;;;;;16.58;9.93;;;16.00;93.30;;;;;;5078772;28;20093;-67
2024/02/29 11:34:29;;;;;;;17.73;9.40;;;16.20;93.00;;;;;;5081153;28;20024;-64
2024/02/29 11:36:55;;;;;;;18.98;9.82;;;16.60;92.00;;;;;;5080200;28;20909;-66
2024/02/29 11:39:21;;;;;;;16.85;9.40;;;16.50;91.10;;;;;;5072197;28;20028;-66
2024/02/29 11:42:03;;;;;;;17.13;10.32;;;16.60;91.00;;;;;;5076608;28;20060;-65
2024/02/29 11:44:33;;;;;;;20.30;9.48;;;16.50;91.00;;;;;;5062667;28;20036;-70
2024/02/29 11:46:59;;;;;;;17.85;10.00;;;16.40;90.30;;;;;;5077796;28;20435;-69
2024/02/29 11:49:26;;;;;;;16.70;9.10;;;17.10;91.10;;;;;;5079561;28;20028;-70
2024/02/29 11:51:52;;;;;;;13.38;8.57;;;17.70;88.70;;;;;;5057508;28;20073;-70
2024/02/29 11:54:18;;;;;;;13.13;8.40;;;17.60;88.10;;;;;;5075652;28;20036;-69
2024/02/29 11:56:45;;;;;;;15.68;9.25;;;18.00;85.60;;;;;;5078394;28;20158;-70
2024/02/29 11:59:12;;;;;;;13.95;8.43;;;18.00;88.10;;;;;;5077639;28;20032;-69
2024/02/29 12:01:40;;;;;;;;;;;18.40;86.60;;;;;;5083560;28;20028;-69
2024/02/29 12:04:06;;;;;;;13.45;8.38;;;18.70;85.30;;;;;;5076161;28;20049;-69
2024/02/29 12:06:34;;;;;;;16.40;8.55;;;18.80;85.10;;;;;;5075051;28;20028;-70
2024/02/29 12:09:00;;;;;;;13.60;7.70;;;18.90;83.60;;;;;;5076812;28;20039;-69
2024/02/29 12:11:26;;;;;;;13.00;7.75;;;18.90;83.00;;;;;;5075413;28;20419;-68
2024/02/29 12:13:54;;;;;;;12.98;7.72;;;18.90;84.20;;;;;;5077874;28;20048;-69
2024/02/29 12:16:19;;;;;;;12.95;7.90;;;18.70;82.60;;;;;;5076411;28;20035;-70
2024/02/29 12:18:45;;;;;;;11.70;7.43;;;18.90;83.00;;;;;;5063425;28;20024;-70
2024/02/29 12:21:11;;;;;;;13.93;8.38;;;18.90;82.60;;;;;;5078880;28;20028;-70
2024/02/29 12:23:38;;;;;;;15.32;7.60;;;19.40;82.40;;;;;;5079269;28;20154;-69
2024/02/29 12:26:11;;;;;;;13.02;7.97;;;19.30;80.80;;;;;;5077037;28;20040;-70
2024/02/29 12:28:41;;;;;;;12.48;7.60;;;19.20;80.60;;;;;;5075706;28;20237;-69
2024/02/29 12:31:08;;;;;;;11.63;6.72;;;19.30;80.70;;;;;;5063750;28;20028;-70
2024/02/29 12:33:42;;;;;;;11.50;7.13;;;19.00;82.40;;;;;;5063752;28;20072;-70